Time;durP1;ratioP1;P1;durP2;ratioP2;P2;SDS_P1;SDS_P2;PMS_P1;PMS_P2;Temp;Humidity;BMP_temperature;BMP_pressure;BME280_temperature;BME280_humidity;BME280_pressure;Samples;Min_cycle;Max_cycle;Signal;HPM_P1;HPM_P2
2022/04/06 00:00:22;;;;;;;;;;;;;;;;;;5143328;27;28349;-94
2022/04/06 00:02:47;;;;;;;;;;;;;;;;;;5141830;27;29978;-93
2022/04/06 00:05:12;;;;;;;;;;;;;;;;;;5142509;27;29394;-93
2022/04/06 00:07:37;;;;;;;;;;;;;;;;;;5142322;27;28476;-93
2022/04/06 00:10:02;;;;;;;;;;;;;;;;;;5161367;27;27782;-91
2022/04/06 00:12:27;;;;;;;;;;;;;;;;;;5159764;27;28497;-91
2022/04/06 00:14:52;;;;;;;;;;;;;;;;;;5140684;27;28239;-92
2022/04/06 00:17:17;;;;;;;;;;;;;;;;;;5141201;27;27813;-92
2022/04/06 00:19:43;;;;;;;;;;;;;;;;;;5141063;27;28370;-93
2022/04/06 00:22:08;;;;;;;;;;;;;;;;;;5142087;27;30543;-91
2022/04/06 00:24:33;;;;;;;;;;;;;;;;;;5141114;27;28365;-91
2022/04/06 00:26:58;;;;;;;;;;;;;;;;;;5159961;27;28434;-93
2022/04/06 00:29:23;;;;;;;;;;;;;;;;;;5142348;27;28329;-93
2022/04/06 00:31:48;;;;;;;;;;;;;;;;;;5140913;27;29829;-91
2022/04/06 00:34:13;;;;;;;;;;;;;;;;;;5160611;27;28394;-92
2022/04/06 00:36:38;;;;;;;;;;;;;;;;;;5160527;27;28349;-93
2022/04/06 00:39:03;;;;;;;;;;;;;;;;;;5141717;27;28314;-92
2022/04/06 00:41:28;;;;;;;;;;;;;;;;;;5140056;27;30953;-92
2022/04/06 00:43:54;;;;;;;;;;;;;;;;;;5140546;27;29594;-92
2022/04/06 00:46:19;;;;;;;;;;;;;;;;;;5140937;27;28259;-92
2022/04/06 00:48:44;;;;;;;;;;;;;;;;;;5161230;27;28346;-92
2022/04/06 00:51:09;;;;;;;;;;;;;;;;;;5141715;27;29804;-92
2022/04/06 00:53:34;;;;;;;;;;;;;;;;;;5141936;27;31456;-92
2022/04/06 00:55:59;;;;;;;;;;;;;;;;;;5141943;27;28337;-92
2022/04/06 00:58:24;;;;;;;;;;;;;;;;;;5159214;27;28378;-91
2022/04/06 01:00:49;;;;;;;;;;;;;;;;;;5141473;27;30280;-92
2022/04/06 01:03:14;;;;;;;;;;;;;;;;;;5159279;27;28472;-91
2022/04/06 01:05:40;;;;;;;;;;;;;;;;;;5159723;27;28392;-92
2022/04/06 01:08:05;;;;;;;;;;;;;;;;;;5140334;27;27972;-91
2022/04/06 01:10:30;;;;;;;;;;;;;;;;;;5159263;27;29050;-91
2022/04/06 01:12:56;;;;;;;;;;;;;;;;;;5140185;27;28447;-92
2022/04/06 01:15:21;;;;;;;;;;;;;;;;;;5158731;27;28394;-92
2022/04/06 01:17:46;;;;;;;;;;;;;;;;;;5159035;27;27853;-90
2022/04/06 01:20:11;;;;;;;;;;;;;;;;;;5140340;27;30843;-92
2022/04/06 01:22:36;;;;;;;;;;;;;;;;;;5142627;27;28370;-93
2022/04/06 01:25:02;;;;;;;;;;;;;;;;;;5141890;27;28332;-93
2022/04/06 01:27:27;;;;;;;;;;;;;;;;;;5143415;27;28626;-94
2022/04/06 01:29:52;;;;;;;;;;;;;;;;;;5143059;27;31272;-94
2022/04/06 01:32:17;;;;;;;;;;;;;;;;;;5142209;27;28299;-94
2022/04/06 01:34:42;;;;;;;;;;;;;;;;;;5144820;27;27672;-93
2022/04/06 01:37:07;;;;;;;;;;;;;;;;;;5141792;27;27767;-94
2022/04/06 01:39:32;;;;;;;;;;;;;;;;;;5141205;27;30532;-91
2022/04/06 01:41:58;;;;;;;;;;;;;;;;;;5140285;27;29041;-92
2022/04/06 01:44:23;;;;;;;;;;;;;;;;;;5140964;27;28780;-92
2022/04/06 01:46:48;;;;;;;;;;;;;;;;;;5140235;27;28547;-92
2022/04/06 01:52:12;;;;;;;;;;;;;;;;;;5157780;27;28405;-91
2022/04/06 01:54:37;;;;;;;;;;;;;;;;;;5142061;27;28408;-92
2022/04/06 01:57:02;;;;;;;;;;;;;;;;;;5161121;27;27842;-91
2022/04/06 01:59:28;;;;;;;;;;;;;;;;;;5161090;27;28709;-91
2022/04/06 02:01:53;;;;;;;;;;;;;;;;;;5142396;27;28345;-91
2022/04/06 02:04:18;;;;;;;;;;;;;;;;;;5161853;27;28415;-93
2022/04/06 02:06:44;;;;;;;;;;;;;;;;;;5142933;27;28416;-91
2022/04/06 02:09:10;;;;;;;;;;;;;;;;;;5142134;27;29949;-91
2022/04/06 02:11:35;;;;;;;;;;;;;;;;;;5143121;27;28479;-91
2022/04/06 02:14:00;;;;;;;;;;;;;;;;;;5142810;27;28395;-91
2022/04/06 02:16:25;;;;;;;;;;;;;;;;;;5142576;27;28417;-93
2022/04/06 02:18:50;;;;;;;;;;;;;;;;;;5143130;27;29856;-91
2022/04/06 02:21:15;;;;;;;;;;;;;;;;;;5142043;27;28717;-91
2022/04/06 02:23:40;;;;;;;;;;;;;;;;;;5161359;27;27818;-90
2022/04/06 02:26:06;;;;;;;;;;;;;;;;;;5141913;27;28434;-91
2022/04/06 02:28:31;;;;;;;;;;;;;;;;;;5141516;27;28635;-91
2022/04/06 02:30:56;;;;;;;;;;;;;;;;;;5141776;27;28348;-91
2022/04/06 02:33:21;;;;;;;;;;;;;;;;;;5142335;27;28410;-92
2022/04/06 02:35:46;;;;;;;;;;;;;;;;;;5162031;27;28253;-91
2022/04/06 02:38:12;;;;;;;;;;;;;;;;;;5143036;27;29743;-92
2022/04/06 02:40:37;;;;;;;;;;;;;;;;;;5145351;27;28973;-91
2022/04/06 02:43:02;;;;;;;;;;;;;;;;;;5143056;27;28334;-92
2022/04/06 02:45:27;;;;;;;;;;;;;;;;;;5145563;27;28373;-92
2022/04/06 02:47:52;;;;;;;;;;;;;;;;;;5143754;27;29950;-94
2022/04/06 02:50:17;;;;;;;;;;;;;;;;;;5143985;27;28456;-90
2022/04/06 02:52:42;;;;;;;;;;;;;;;;;;5143258;27;28444;-93
2022/04/06 02:55:12;;;;;;;;;;;;;;;;;;5143955;27;28320;-93
2022/04/06 02:57:37;;;;;;;;;;;;;;;;;;5142877;27;29849;-92
2022/04/06 03:00:02;;;;;;;;;;;;;;;;;;5143228;27;28547;-91
2022/04/06 03:02:27;;;;;;;;;;;;;;;;;;5142966;27;28421;-92
2022/04/06 03:04:53;;;;;;;;;;;;;;;;;;5142117;27;28371;-92
2022/04/06 03:07:18;;;;;;;;;;;;;;;;;;5160391;27;28926;-92
2022/04/06 03:09:43;;;;;;;;;;;;;;;;;;5141827;27;29371;-91
2022/04/06 03:12:08;;;;;;;;;;;;;;;;;;5160999;27;28324;-91
2022/04/06 03:14:34;;;;;;;;;;;;;;;;;;5141454;27;28436;-91
2022/04/06 03:16:59;;;;;;;;;;;;;;;;;;5141165;27;30686;-92
2022/04/06 03:19:24;;;;;;;;;;;;;;;;;;5160600;27;28230;-91
2022/04/06 03:21:49;;;;;;;;;;;;;;;;;;5159813;27;28456;-91
2022/04/06 03:24:14;;;;;;;;;;;;;;;;;;5159919;27;28473;-90
2022/04/06 03:26:39;;;;;;;;;;;;;;;;;;5159498;27;28470;-91
2022/04/06 03:29:04;;;;;;;;;;;;;;;;;;5140801;27;28483;-90
2022/04/06 03:31:29;;;;;;;;;;;;;;;;;;5140509;27;28431;-90
2022/04/06 03:33:55;;;;;;;;;;;;;;;;;;5159608;27;28448;-91
2022/04/06 03:36:20;;;;;;;;;;;;;;;;;;5140947;27;30162;-92
2022/04/06 03:38:45;;;;;;;;;;;;;;;;;;5159910;27;28587;-92
2022/04/06 03:41:10;;;;;;;;;;;;;;;;;;5143052;27;28356;-91
2022/04/06 03:43:36;;;;;;;;;;;;;;;;;;5141479;27;28558;-92
2022/04/06 03:46:01;;;;;;;;;;;;;;;;;;5142255;27;30232;-93
2022/04/06 03:48:26;;;;;;;;;;;;;;;;;;5141460;27;28746;-92
2022/04/06 03:50:51;;;;;;;;;;;;;;;;;;5141943;27;28443;-94
2022/04/06 03:53:16;;;;;;;;;;;;;;;;;;5142183;27;27960;-92
2022/04/06 03:55:41;;;;;;;;;;;;;;;;;;5141862;27;30494;-94
2022/04/06 03:58:06;;;;;;;;;;;;;;;;;;5142006;27;28611;-92
2022/04/06 04:00:31;;;;;;;;;;;;;;;;;;5141836;27;28562;-93
2022/04/06 04:02:57;;;;;;;;;;;;;;;;;;5141985;27;28227;-92
2022/04/06 04:05:22;;;;;;;;;;;;;;;;;;5159458;27;28507;-91
2022/04/06 04:07:47;;;;;;;;;;;;;;;;;;5141664;27;28256;-92
2022/04/06 04:10:14;;;;;;;;;;;;;;;;;;5140966;27;27785;-92
2022/04/06 04:12:39;;;;;;;;;;;;;;;;;;5141462;27;28421;-92
2022/04/06 04:15:04;;;;;;;;;;;;;;;;;;5141613;27;29650;-93
2022/04/06 04:17:29;;;;;;;;;;;;;;;;;;5159855;27;28398;-91
2022/04/06 04:19:54;;;;;;;;;;;;;;;;;;5141992;27;28354;-92
2022/04/06 04:22:19;;;;;;;;;;;;;;;;;;5142262;27;28333;-93
2022/04/06 04:24:44;;;;;;;;;;;;;;;;;;5141485;27;29852;-91
2022/04/06 04:27:09;;;;;;;;;;;;;;;;;;5140544;27;28418;-92
2022/04/06 04:29:35;;;;;;;;;;;;;;;;;;5140694;27;28347;-94
2022/04/06 04:32:00;;;;;;;;;;;;;;;;;;5141520;27;28495;-92
2022/04/06 04:34:25;;;;;;;;;;;;;;;;;;5141336;27;29698;-92
2022/04/06 04:36:50;;;;;;;;;;;;;;;;;;5141224;27;29410;-92
2022/04/06 04:39:15;;;;;;;;;;;;;;;;;;5141844;27;28296;-92
2022/04/06 04:41:40;;;;;;;;;;;;;;;;;;5141131;27;28500;-92
2022/04/06 04:44:05;;;;;;;;;;;;;;;;;;5142164;27;30670;-91
2022/04/06 04:46:31;;;;;;;;;;;;;;;;;;5141118;27;29110;-91
2022/04/06 04:48:56;;;;;;;;;;;;;;;;;;5140619;27;28390;-91
2022/04/06 04:51:21;;;;;;;;;;;;;;;;;;5141508;27;28407;-90
2022/04/06 04:53:46;;;;;;;;;;;;;;;;;;5159890;27;28354;-92
2022/04/06 04:56:11;;;;;;;;;;;;;;;;;;5140072;27;28484;-91
2022/04/06 04:58:36;;;;;;;;;;;;;;;;;;5139839;27;28393;-86
2022/04/06 05:01:01;;;;;;;;;;;;;;;;;;5157558;27;28452;-85
2022/04/06 05:03:26;;;;;;;;;;;;;;;;;;5157319;27;28418;-92
2022/04/06 05:05:53;;;;;;;;;;;;;;;;;;5138752;27;28405;-87
2022/04/06 05:08:18;;;;;;;;;;;;;;;;;;5158226;27;28381;-91
2022/04/06 05:10:44;;;;;;;;;;;;;;;;;;5139456;27;28421;-87
2022/04/06 05:13:09;;;;;;;;;;;;;;;;;;5164159;27;28889;-86
2022/04/06 05:15:34;;;;;;;;;;;;;;;;;;5165342;27;27771;-92
2022/04/06 05:17:59;;;;;;;;;;;;;;;;;;5150607;27;28434;-94
2022/04/06 05:20:24;;;;;;;;;;;;;;;;;;5154536;27;27880;-95
2022/04/06 05:22:50;;;;;;;;;;;;;;;;;;5164507;27;29473;-89
2022/04/06 05:25:15;;;;;;;;;;;;;;;;;;5161326;27;28419;-91
2022/04/06 05:27:40;;;;;;;;;;;;;;;;;;5140943;27;28537;-92
2022/04/06 05:30:05;;;;;;;;;;;;;;;;;;5162334;27;28346;-90
2022/04/06 05:32:30;;;;;;;;;;;;;;;;;;5164682;27;28489;-92
2022/04/06 05:34:56;;;;;;;;;;;;;;;;;;5163901;27;28304;-92
2022/04/06 05:37:21;;;;;;;;;;;;;;;;;;5145901;27;27802;-91
2022/04/06 05:39:46;;;;;;;;;;;;;;;;;;5147780;27;27929;-93
2022/04/06 05:42:11;;;;;;;;;;;;;;;;;;5146825;27;33703;-93
2022/04/06 05:44:36;;;;;;;;;;;;;;;;;;5165672;27;28242;-93
2022/04/06 05:47:02;;;;;;;;;;;;;;;;;;5162526;27;28318;-92
2022/04/06 05:49:27;;;;;;;;;;;;;;;;;;5147870;27;28523;-94
2022/04/06 05:51:52;;;;;;;;;;;;;;;;;;5163109;27;29905;-96
2022/04/06 05:54:17;;;;;;;;;;;;;;;;;;5162109;27;27724;-94
2022/04/06 05:56:42;;;;;;;;;;;;;;;;;;5156905;27;28251;-94
2022/04/06 05:59:07;;;;;;;;;;;;;;;;;;5148112;27;28302;-92
2022/04/06 06:01:32;;;;;;;;;;;;;;;;;;5163472;27;28570;-92
2022/04/06 06:03:57;;;;;;;;;;;;;;;;;;5145357;27;28515;-92
2022/04/06 06:06:23;;;;;;;;;;;;;;;;;;5144813;27;28324;-93
2022/04/06 06:08:48;;;;;;;;;;;;;;;;;;5144943;27;28613;-91
2022/04/06 06:11:13;;;;;;;;;;;;;;;;;;5163655;27;28458;-91
2022/04/06 06:13:39;;;;;;;;;;;;;;;;;;5163392;27;28329;-91
2022/04/06 06:16:04;;;;;;;;;;;;;;;;;;5143994;27;28290;-93
2022/04/06 06:18:29;;;;;;;;;;;;;;;;;;5144979;27;28189;-93
2022/04/06 06:20:56;;;;;;;;;;;;;;;;;;5144210;27;30120;-92
2022/04/06 06:23:21;;;;;;;;;;;;;;;;;;5142957;27;28509;-90
2022/04/06 06:25:46;;;;;;;;;;;;;;;;;;5161391;27;28284;-92
2022/04/06 06:28:11;;;;;;;;;;;;;;;;;;5142959;27;28313;-91
2022/04/06 06:30:36;;;;;;;;;;;;;;;;;;5162778;27;29337;-90
2022/04/06 06:33:01;;;;;;;;;;;;;;;;;;5144076;27;29343;-92
2022/04/06 06:35:26;;;;;;;;;;;;;;;;;;5144264;27;28427;-92
2022/04/06 06:37:51;;;;;;;;;;;;;;;;;;5163103;27;28524;-93
2022/04/06 06:40:17;;;;;;;;;;;;;;;;;;5142586;27;29988;-93
2022/04/06 06:42:42;;;;;;;;;;;;;;;;;;5144011;27;28510;-91
2022/04/06 06:45:07;;;;;;;;;;;;;;;;;;5144359;27;27762;-93
2022/04/06 06:47:32;;;;;;;;;;;;;;;;;;5144333;27;27880;-92
2022/04/06 06:49:57;;;;;;;;;;;;;;;;;;5144934;27;29580;-94
2022/04/06 06:52:23;;;;;;;;;;;;;;;;;;5145850;27;28451;-92
2022/04/06 06:54:48;;;;;;;;;;;;;;;;;;5146040;27;28358;-92
2022/04/06 06:57:13;;;;;;;;;;;;;;;;;;5145284;27;28577;-92
2022/04/06 06:59:38;;;;;;;;;;;;;;;;;;5163132;27;29563;-93
2022/04/06 07:02:04;;;;;;;;;;;;;;;;;;5144596;27;28574;-93
2022/04/06 07:04:29;;;;;;;;;;;;;;;;;;5145695;27;27829;-92
2022/04/06 07:06:54;;;;;;;;;;;;;;;;;;5145226;27;35165;-94
2022/04/06 07:09:19;;;;;;;;;;;;;;;;;;5143982;27;29747;-94
2022/04/06 07:11:44;;;;;;;;;;;;;;;;;;5144609;27;28329;-93
2022/04/06 07:14:09;;;;;;;;;;;;;;;;;;5162923;27;28389;-91
2022/04/06 07:16:34;;;;;;;;;;;;;;;;;;5144533;27;28307;-93
2022/04/06 07:18:59;;;;;;;;;;;;;;;;;;5144523;27;29916;-92
2022/04/06 07:21:24;;;;;;;;;;;;;;;;;;5162892;27;28333;-93
2022/04/06 07:23:50;;;;;;;;;;;;;;;;;;5145102;27;28406;-94
2022/04/06 07:26:16;;;;;;;;;;;;;;;;;;5143984;27;28456;-93
2022/04/06 07:28:42;;;;;;;;;;;;;;;;;;5143086;27;30225;-93
2022/04/06 07:31:07;;;;;;;;;;;;;;;;;;5143786;27;28399;-93
2022/04/06 07:33:36;;;;;;;;;;;;;;;;;;5163758;27;27690;-93
2022/04/06 07:36:01;;;;;;;;;;;;;;;;;;5162813;27;27889;-92
2022/04/06 07:38:26;;;;;;;;;;;;;;;;;;5143383;27;29970;-92
2022/04/06 07:40:51;;;;;;;;;;;;;;;;;;5143808;27;28797;-93
2022/04/06 07:43:16;;;;;;;;;;;;;;;;;;5143639;27;28529;-93
2022/04/06 07:45:41;;;;;;;;;;;;;;;;;;5142723;27;28402;-93
2022/04/06 07:48:07;;;;;;;;;;;;;;;;;;5161305;27;28364;-93
2022/04/06 07:50:32;;;;;;;;;;;;;;;;;;5160849;27;28455;-94
2022/04/06 07:52:57;;;;;;;;;;;;;;;;;;5143035;27;28337;-92
2022/04/06 07:55:22;;;;;;;;;;;;;;;;;;5143250;27;28399;-93
2022/04/06 07:57:47;;;;;;;;;;;;;;;;;;5142965;27;29785;-94
2022/04/06 08:00:13;;;;;;;;;;;;;;;;;;5142057;27;28418;-91
2022/04/06 08:02:38;;;;;;;;;;;;;;;;;;5161072;27;28480;-93
2022/04/06 08:05:04;;;;;;;;;;;;;;;;;;5143137;27;28423;-93
2022/04/06 08:07:29;;;;;;;;;;;;;;;;;;5143527;27;30494;-93
2022/04/06 08:09:54;;;;;;;;;;;;;;;;;;5143010;27;28334;-92
2022/04/06 08:12:20;;;;;;;;;;;;;;;;;;5141993;27;28336;-92
2022/04/06 08:14:46;;;;;;;;;;;;;;;;;;5151298;27;27931;-92
2022/04/06 08:17:12;;;;;;;;;;;;;;;;;;5161200;27;28403;-92
2022/04/06 08:19:37;;;;;;;;;;;;;;;;;;5158233;27;28294;-92
2022/04/06 08:22:02;;;;;;;;;;;;;;;;;;5158845;27;28445;-91
2022/04/06 08:24:27;;;;;;;;;;;;;;;;;;5152798;27;27904;-91
2022/04/06 08:26:52;;;;;;;;;;;;;;;;;;5165016;27;28598;-95
2022/04/06 08:29:17;;;;;;;;;;;;;;;;;;5158990;27;28385;-94
2022/04/06 08:31:42;;;;;;;;;;;;;;;;;;5154262;27;28414;-93
2022/04/06 08:34:07;;;;;;;;;;;;;;;;;;5162398;27;28558;-94
2022/04/06 08:36:33;;;;;;;;;;;;;;;;;;5159021;27;29589;-96
2022/04/06 08:38:59;;;;;;;;;;;;;;;;;;5146599;27;28593;-94
2022/04/06 08:41:26;;;;;;;;;;;;;;;;;;5141433;27;28270;-92
2022/04/06 08:43:51;;;;;;;;;;;;;;;;;;5160122;27;28493;-93
2022/04/06 08:46:16;;;;;;;;;;;;;;;;;;5141385;27;30852;-92
2022/04/06 08:48:41;;;;;;;;;;;;;;;;;;5141694;27;29394;-93
2022/04/06 08:51:06;;;;;;;;;;;;;;;;;;5140942;27;28343;-91
2022/04/06 08:53:31;;;;;;;;;;;;;;;;;;5139580;27;28506;-91
2022/04/06 08:55:56;;;;;;;;;;;;;;;;;;5158073;27;28411;-90
2022/04/06 08:58:22;;;;;;;;;;;;;;;;;;5140005;27;28675;-90
2022/04/06 09:00:48;;;;;;;;;;;;;;;;;;5159982;27;28442;-94
2022/04/06 09:03:13;;;;;;;;;;;;;;;;;;5141861;27;28531;-91
2022/04/06 09:05:38;;;;;;;;;;;;;;;;;;5150924;27;30853;-92
2022/04/06 09:08:04;;;;;;;;;;;;;;;;;;5159997;27;29596;-93
2022/04/06 09:10:31;;;;;;;;;;;;;;;;;;5144723;27;28694;-93
2022/04/06 09:12:56;;;;;;;;;;;;;;;;;;5150864;27;28358;-93
2022/04/06 09:15:21;;;;;;;;;;;;;;;;;;5141151;27;29980;-94
2022/04/06 09:17:47;;;;;;;;;;;;;;;;;;5158937;27;28368;-92
2022/04/06 09:20:12;;;;;;;;;;;;;;;;;;5164935;27;27787;-94
2022/04/06 09:22:37;;;;;;;;;;;;;;;;;;5152766;27;28452;-91
2022/04/06 09:25:03;;;;;;;;;;;;;;;;;;5141566;27;28284;-93
2022/04/06 09:27:28;;;;;;;;;;;;;;;;;;5146952;27;28804;-96
2022/04/06 09:29:54;;;;;;;;;;;;;;;;;;5168456;27;28361;-92
2022/04/06 09:32:22;;;;;;;;;;;;;;;;;;5182683;27;28448;-95
2022/04/06 09:34:47;;;;;;;;;;;;;;;;;;5163673;27;30748;-95
2022/04/06 09:37:13;;;;;;;;;;;;;;;;;;5154222;27;29389;-95
2022/04/06 09:39:38;;;;;;;;;;;;;;;;;;5161532;27;28329;-94
2022/04/06 09:42:03;;;;;;;;;;;;;;;;;;5194710;27;27970;-95
2022/04/06 09:49:57;;;;;;;;;;;;;;;;;;5183920;27;27781;-94
2022/04/06 09:55:24;;;;;;;;;;;;;;;;;;5180360;27;27998;-95
2022/04/06 09:57:55;;;;;;;;;;;;;;;;;;5181855;27;28397;-94
2022/04/06 10:00:20;;;;;;;;;;;;;;;;;;5185323;27;27774;-95
2022/04/06 10:02:46;;;;;;;;;;;;;;;;;;5588124;22;29673;-95
2022/04/06 10:05:11;;;;;;;;;;;;;;;;;;5102465;27;28166;-95
2022/04/06 10:07:37;;;;;;;;;;;;;;;;;;5122461;27;27685;-95
2022/04/06 10:10:02;;;;;;;;;;;;;;;;;;5105657;27;27744;-95
2022/04/06 10:12:27;;;;;;;;;;;;;;;;;;5111879;27;27871;-93
2022/04/06 10:14:52;;;;;;;;;;;;;;;;;;5101334;28;28381;-90
2022/04/06 10:17:18;;;;;;;;;;;;;;;;;;5099141;28;28303;-93
2022/04/06 10:19:43;;;;;;;;;;;;;;;;;;5098777;28;28533;-90
2022/04/06 10:22:08;;;;;;;;;;;;;;;;;;5099333;28;28517;-89
2022/04/06 10:24:34;;;;;;;;;;;;;;;;;;5080885;28;30743;-87
2022/04/06 10:26:59;;;;;;;;;;;;;;;;;;5100201;28;28316;-92
2022/04/06 10:29:24;;;;;;;;;;;;;;;;;;5101898;28;28312;-92
2022/04/06 10:31:49;;;;;;;;;;;;;;;;;;5101375;28;28427;-90
2022/04/06 10:34:14;;;;;;;;;;;;;;;;;;5099484;28;34343;-91
2022/04/06 10:36:40;;;;;;;;;;;;;;;;;;5100209;28;27904;-86
2022/04/06 10:39:05;;;;;;;;;;;;;;;;;;5098758;28;28490;-91
2022/04/06 10:41:30;;;;;;;;;;;;;;;;;;5103350;28;28373;-86
2022/04/06 10:43:56;;;;;;;;;;;;;;;;;;5084077;28;28401;-89
2022/04/06 10:46:21;;;;;;;;;;;;;;;;;;5103792;28;28457;-87
2022/04/06 10:48:46;;;;;;;;;;;;;;;;;;5101861;28;28351;-86
2022/04/06 10:51:11;;;;;;;;;;;;;;;;;;5079891;28;28016;-89
2022/04/06 10:53:36;;;;;;;;;;;;;;;;;;5098533;28;28463;-90
2022/04/06 10:56:03;;;;;;;;;;;;;;;;;;5098143;28;28385;-91
2022/04/06 10:58:28;;;;;;;;;;;;;;;;;;5097452;28;28378;-87
2022/04/06 11:00:53;;;;;;;;;;;;;;;;;;5097927;28;28347;-86
2022/04/06 11:03:19;;;;;;;;;;;;;;;;;;5097364;28;28379;-89
2022/04/06 11:05:44;;;;;;;;;;;;;;;;;;5084058;28;28330;-91
2022/04/06 11:10:53;;;;;;;;;;;;;;;;;;5086787;28;28253;-91
2022/04/06 11:13:18;;;;;;;;;;;;;;;;;;5073740;28;29853;-90
2022/04/06 11:15:44;;;;;;;;;;;;;;;;;;5084108;28;28689;-91
2022/04/06 11:18:09;;;;;;;;;;;;;;;;;;5087860;28;28505;-90
2022/04/06 11:20:41;;;;;;;;;;;;;;;;;;5110079;28;27834;-93
2022/04/06 11:23:26;;;;;;;;;;;;;;;;;;5055172;28;28554;-86
2022/04/06 11:25:51;;;;;;;;;;;;;;;;;;5064769;28;28421;-87
2022/04/06 11:28:16;;;;;;;;;;;;;;;;;;5053304;28;28362;-86
2022/04/06 11:30:41;;;;;;;;;;;;;;;;;;5053560;28;28598;-85
2022/04/06 11:33:06;;;;;;;;;;;;;;;;;;5053208;28;28492;-86
2022/04/06 11:35:33;;;;;;;;;;;;;;;;;;5052822;28;28465;-86
2022/04/06 11:37:58;;;;;;;;;;;;;;;;;;5053037;28;28481;-85
2022/04/06 11:40:24;;;;;;;;;;;;;;;;;;5053136;28;28473;-86
2022/04/06 11:42:49;;;;;;;;;;;;;;;;;;5052929;28;28646;-85
2022/04/06 11:45:14;;;;;;;;;;;;;;;;;;5053316;28;28442;-85
2022/04/06 11:47:39;;;;;;;;;;;;;;;;;;5053181;28;28441;-90
2022/04/06 11:50:05;;;;;;;;;;;;;;;;;;5053646;28;28462;-87
2022/04/06 11:52:31;;;;;;;;;;;;;;;;;;5053502;28;29025;-87
2022/04/06 11:54:56;;;;;;;;;;;;;;;;;;5053290;28;28441;-86
2022/04/06 11:57:21;;;;;;;;;;;;;;;;;;5053438;28;28454;-86
2022/04/06 11:59:46;;;;;;;;;;;;;;;;;;5053152;28;28419;-85
2022/04/06 12:02:11;;;;;;;;;;;;;;;;;;5053785;28;28488;-84
2022/04/06 12:04:36;;;;;;;;;;;;;;;;;;5052350;28;28511;-85
2022/04/06 12:07:01;;;;;;;;;;;;;;;;;;5071779;28;28402;-88
2022/04/06 12:09:29;;;;;;;;;;;;;;;;;;5097797;28;28402;-88
2022/04/06 12:11:54;;;;;;;;;;;;;;;;;;5099359;28;28513;-93
2022/04/06 12:14:19;;;;;;;;;;;;;;;;;;5088536;28;28672;-92
2022/04/06 12:16:45;;;;;;;;;;;;;;;;;;5088929;28;28497;-94
2022/04/06 12:19:13;;;;;;;;;;;;;;;;;;5092506;28;28463;-94
2022/04/06 12:21:38;;;;;;;;;;;;;;;;;;5096576;28;29692;-94
2022/04/06 12:24:03;;;;;;;;;;;;;;;;;;5095343;28;28355;-94
2022/04/06 12:26:29;;;;;;;;;;;;;;;;;;5096781;28;28343;-95
2022/04/06 12:28:55;;;;;;;;;;;;;;;;;;5115607;28;27804;-94
2022/04/06 12:31:21;;;;;;;;;;;;;;;;;;5097314;28;28360;-94
2022/04/06 12:33:47;;;;;;;;;;;;;;;;;;5094568;28;27823;-94
2022/04/06 12:36:13;;;;;;;;;;;;;;;;;;5082035;28;28341;-95
2022/04/06 12:38:39;;;;;;;;;;;;;;;;;;5089674;28;27934;-94
2022/04/06 12:41:04;;;;;;;;;;;;;;;;;;5096514;28;28120;-96
2022/04/06 12:43:29;;;;;;;;;;;;;;;;;;5102325;28;28259;-94
2022/04/06 12:45:55;;;;;;;;;;;;;;;;;;5101229;28;28402;-94
2022/04/06 12:48:20;;;;;;;;;;;;;;;;;;5094617;28;27909;-91
2022/04/06 12:50:46;;;;;;;;;;;;;;;;;;5081880;28;29797;-92
2022/04/06 12:53:12;;;;;;;;;;;;;;;;;;5083819;28;28558;-92
2022/04/06 12:55:37;;;;;;;;;;;;;;;;;;5083957;28;28373;-93
2022/04/06 12:58:03;;;;;;;;;;;;;;;;;;5083669;28;27954;-93
2022/04/06 13:00:30;;;;;;;;;;;;;;;;;;5082966;28;33628;-93
2022/04/06 13:02:55;;;;;;;;;;;;;;;;;;5101355;28;28069;-93
2022/04/06 13:05:20;;;;;;;;;;;;;;;;;;5083162;28;28401;-94
2022/04/06 13:07:45;;;;;;;;;;;;;;;;;;5078244;28;28270;-88
2022/04/06 13:10:10;;;;;;;;;;;;;;;;;;5095141;28;28311;-88
2022/04/06 13:12:35;;;;;;;;;;;;;;;;;;5095687;28;28390;-89
2022/04/06 13:15:00;;;;;;;;;;;;;;;;;;5094886;28;28528;-88
2022/04/06 13:17:25;;;;;;;;;;;;;;;;;;5095772;28;28402;-88
2022/04/06 13:19:51;;;;;;;;;;;;;;;;;;5095268;28;28323;-89
2022/04/06 13:22:16;;;;;;;;;;;;;;;;;;5076575;28;28442;-90
2022/04/06 13:24:41;;;;;;;;;;;;;;;;;;5094597;28;28887;-86
2022/04/06 13:27:06;;;;;;;;;;;;;;;;;;5094014;28;28428;-86
2022/04/06 13:29:31;;;;;;;;;;;;;;;;;;5094657;28;29339;-86
2022/04/06 13:31:56;;;;;;;;;;;;;;;;;;5094875;28;28399;-85
2022/04/06 13:34:21;;;;;;;;;;;;;;;;;;5094355;28;28410;-85
2022/04/06 13:36:47;;;;;;;;;;;;;;;;;;5094970;28;28466;-86
2022/04/06 13:39:12;;;;;;;;;;;;;;;;;;5094008;28;28484;-86
2022/04/06 13:41:38;;;;;;;;;;;;;;;;;;5094354;28;28469;-86
2022/04/06 13:44:03;;;;;;;;;;;;;;;;;;5094747;28;28469;-86
2022/04/06 13:46:28;;;;;;;;;;;;;;;;;;5094562;28;28221;-86
2022/04/06 13:48:56;;;;;;;;;;;;;;;;;;5094536;28;29025;-86
2022/04/06 13:51:22;;;;;;;;;;;;;;;;;;5099008;27;28570;-86
2022/04/06 13:53:47;;;;;;;;;;;;;;;;;;5118574;27;28532;-89
2022/04/06 13:56:12;;;;;;;;;;;;;;;;;;5108583;27;28537;-87
2022/04/06 13:58:37;;;;;;;;;;;;;;;;;;5097322;28;28492;-87
2022/04/06 14:01:02;;;;;;;;;;;;;;;;;;5097295;28;28604;-87
2022/04/06 14:03:27;;;;;;;;;;;;;;;;;;5096955;28;28468;-87
2022/04/06 14:05:55;;;;;;;;;;;;;;;;;;5097710;28;28627;-88
2022/04/06 14:08:20;;;;;;;;;;;;;;;;;;5097800;28;29539;-87
2022/04/06 14:10:45;;;;;;;;;;;;;;;;;;5117117;27;28264;-86
2022/04/06 14:13:10;;;;;;;;;;;;;;;;;;5099970;27;28403;-86
2022/04/06 14:15:36;;;;;;;;;;;;;;;;;;5114017;27;28778;-85
2022/04/06 14:18:01;;;;;;;;;;;;;;;;;;5097143;28;28389;-87
2022/04/06 14:20:26;;;;;;;;;;;;;;;;;;5097052;28;27853;-86
2022/04/06 14:22:51;;;;;;;;;;;;;;;;;;5097498;28;28301;-87
2022/04/06 14:25:17;;;;;;;;;;;;;;;;;;5097568;28;28257;-87
2022/04/06 14:27:42;;;;;;;;;;;;;;;;;;5097529;28;28460;-88
2022/04/06 14:30:08;;;;;;;;;;;;;;;;;;5096745;28;28405;-87
2022/04/06 14:32:33;;;;;;;;;;;;;;;;;;5102902;27;28456;-86
2022/04/06 14:34:58;;;;;;;;;;;;;;;;;;5117813;27;28301;-87
2022/04/06 14:37:23;;;;;;;;;;;;;;;;;;5105711;27;28746;-85
2022/04/06 14:39:48;;;;;;;;;;;;;;;;;;5097131;28;28591;-88
2022/04/06 14:42:15;;;;;;;;;;;;;;;;;;5096685;28;28537;-87
2022/04/06 14:44:41;;;;;;;;;;;;;;;;;;5097055;28;28534;-86
2022/04/06 14:47:06;;;;;;;;;;;;;;;;;;5096582;28;29668;-91
2022/04/06 14:49:31;;;;;;;;;;;;;;;;;;5096324;28;28511;-88
2022/04/06 14:51:56;;;;;;;;;;;;;;;;;;5096609;28;28817;-87
2022/04/06 14:54:21;;;;;;;;;;;;;;;;;;5095953;28;28569;-88
2022/04/06 14:56:47;;;;;;;;;;;;;;;;;;5096795;28;29065;-88
2022/04/06 14:59:12;;;;;;;;;;;;;;;;;;5095741;28;28510;-87
2022/04/06 15:01:37;;;;;;;;;;;;;;;;;;5095523;28;28535;-89
2022/04/06 15:04:02;;;;;;;;;;;;;;;;;;5074964;28;28431;-88
2022/04/06 15:06:28;;;;;;;;;;;;;;;;;;5076256;28;28615;-89
2022/04/06 15:08:53;;;;;;;;;;;;;;;;;;5075054;28;27988;-91
2022/04/06 15:11:18;;;;;;;;;;;;;;;;;;5077430;28;28539;-88
2022/04/06 15:13:43;;;;;;;;;;;;;;;;;;5076032;28;28451;-87
2022/04/06 15:16:08;;;;;;;;;;;;;;;;;;5077483;28;28435;-91
2022/04/06 15:18:33;;;;;;;;;;;;;;;;;;5077656;28;28386;-88
2022/04/06 15:20:59;;;;;;;;;;;;;;;;;;5074635;28;27853;-89
2022/04/06 15:23:24;;;;;;;;;;;;;;;;;;5072012;28;28465;-87
2022/04/06 15:25:49;;;;;;;;;;;;;;;;;;5072930;28;28547;-90
2022/04/06 15:28:17;;;;;;;;;;;;;;;;;;5072656;28;28430;-88
2022/04/06 15:30:42;;;;;;;;;;;;;;;;;;5071375;28;28876;-84
2022/04/06 15:33:09;;;;;;;;;;;;;;;;;;5073796;28;28394;-86
2022/04/06 15:38:17;;;;;;;;;;;;;;;;;;5073399;28;28446;-89
2022/04/06 15:40:43;;;;;;;;;;;;;;;;;;5073513;28;28473;-88
2022/04/06 15:43:08;;;;;;;;;;;;;;;;;;5074000;28;28494;-89
2022/04/06 15:45:33;;;;;;;;;;;;;;;;;;5071954;28;28569;-87
2022/04/06 15:47:58;;;;;;;;;;;;;;;;;;5078021;28;28490;-93
2022/04/06 15:50:23;;;;;;;;;;;;;;;;;;5083128;28;28419;-93
2022/04/06 15:52:49;;;;;;;;;;;;;;;;;;5081572;28;27842;-92
2022/04/06 15:55:14;;;;;;;;;;;;;;;;;;5078589;28;28620;-91
2022/04/06 15:57:39;;;;;;;;;;;;;;;;;;5081350;28;28347;-92
2022/04/06 16:00:04;;;;;;;;;;;;;;;;;;5078753;28;27854;-91
2022/04/06 16:02:30;;;;;;;;;;;;;;;;;;5079878;28;28559;-92
2022/04/06 16:04:55;;;;;;;;;;;;;;;;;;5082263;28;30689;-92
2022/04/06 16:07:20;;;;;;;;;;;;;;;;;;5082268;28;28580;-92
2022/04/06 16:09:45;;;;;;;;;;;;;;;;;;5083585;28;28410;-92
2022/04/06 16:12:11;;;;;;;;;;;;;;;;;;5085022;28;28336;-94
2022/04/06 16:14:42;;;;;;;;;;;;;;;;;;5110275;28;29150;-95
2022/04/06 16:17:07;;;;;;;;;;;;;;;;;;5088699;28;28375;-92
2022/04/06 16:19:33;;;;;;;;;;;;;;;;;;5103890;28;28245;-93
2022/04/06 16:21:58;;;;;;;;;;;;;;;;;;5089987;28;28250;-88
2022/04/06 16:24:23;;;;;;;;;;;;;;;;;;5095871;28;29511;-89
2022/04/06 16:26:48;;;;;;;;;;;;;;;;;;5098258;28;28627;-94
2022/04/06 16:29:13;;;;;;;;;;;;;;;;;;5086277;28;28451;-92
2022/04/06 16:31:38;;;;;;;;;;;;;;;;;;5088263;28;28433;-93
2022/04/06 16:34:03;;;;;;;;;;;;;;;;;;5087358;28;29623;-94
2022/04/06 16:36:33;;;;;;;;;;;;;;;;;;5086363;28;28378;-93
2022/04/06 16:39:01;;;;;;;;;;;;;;;;;;5088510;28;27830;-94
2022/04/06 16:41:26;;;;;;;;;;;;;;;;;;5090143;28;28598;-95
2022/04/06 16:43:51;;;;;;;;;;;;;;;;;;5089600;28;29622;-94
2022/04/06 16:46:17;;;;;;;;;;;;;;;;;;5088077;28;29074;-94
2022/04/06 16:48:42;;;;;;;;;;;;;;;;;;5094009;28;27750;-95